sensor_id;sensor_type;location;lat;lon;timestamp;pressure;altitude;pressure_sealevel;temperature;humidity
7026;BME280;3554;42.132;24.786;2023-04-24T00:00:58;98986.06;;;10.57;100.00
7026;BME280;3554;42.132;24.786;2023-04-24T00:03:26;98977.25;;;10.60;100.00
7026;BME280;3554;42.132;24.786;2023-04-24T00:05:54;98983.97;;;10.47;100.00
7026;BME280;3554;42.132;24.786;2023-04-24T00:08:22;98997.41;;;10.39;100.00
7026;BME280;3554;42.132;24.786;2023-04-24T00:10:49;98986.03;;;10.40;100.00
7026;BME280;3554;42.132;24.786;2023-04-24T00:13:17;98982.00;;;10.33;100.00
7026;BME280;3554;42.132;24.786;2023-04-24T00:15:44;98973.38;;;10.31;100.00
7026;BME280;3554;42.132;24.786;2023-04-24T00:18:11;98974.38;;;10.29;100.00
7026;BME280;3554;42.132;24.786;2023-04-24T00:20:38;98929.06;;;10.28;100.00
7026;BME280;3554;42.132;24.786;2023-04-24T00:23:05;98943.50;;;10.54;100.00
7026;BME280;3554;42.132;24.786;2023-04-24T00:25:33;98930.31;;;10.57;100.00
7026;BME280;3554;42.132;24.786;2023-04-24T00:28:00;98922.81;;;10.49;100.00
7026;BME280;3554;42.132;24.786;2023-04-24T00:30:26;98907.81;;;10.34;100.00
7026;BME280;3554;42.132;24.786;2023-04-24T00:32:53;98889.69;;;10.48;100.00
7026;BME280;3554;42.132;24.786;2023-04-24T00:35:20;98869.50;;;10.69;100.00
7026;BME280;3554;42.132;24.786;2023-04-24T00:37:47;98861.38;;;10.75;100.00
7026;BME280;3554;42.132;24.786;2023-04-24T00:40:14;98867.59;;;10.90;100.00
7026;BME280;3554;42.132;24.786;2023-04-24T00:42:43;98862.84;;;10.98;100.00
7026;BME280;3554;42.132;24.786;2023-04-24T00:45:10;98865.28;;;11.01;100.00
7026;BME280;3554;42.132;24.786;2023-04-24T00:47:38;98875.69;;;11.02;100.00
7026;BME280;3554;42.132;24.786;2023-04-24T00:50:06;98850.13;;;10.73;100.00
7026;BME280;3554;42.132;24.786;2023-04-24T00:52:33;98866.34;;;10.97;100.00
7026;BME280;3554;42.132;24.786;2023-04-24T00:55:00;98861.75;;;11.02;100.00
7026;BME280;3554;42.132;24.786;2023-04-24T00:57:28;98857.97;;;11.07;100.00
7026;BME280;3554;42.132;24.786;2023-04-24T00:59:56;98846.09;;;11.00;100.00
7026;BME280;3554;42.132;24.786;2023-04-24T01:02:23;98834.25;;;10.93;100.00
7026;BME280;3554;42.132;24.786;2023-04-24T01:04:51;98812.91;;;11.18;100.00
7026;BME280;3554;42.132;24.786;2023-04-24T01:07:19;98781.97;;;10.92;100.00
7026;BME280;3554;42.132;24.786;2023-04-24T01:09:47;98786.47;;;10.55;100.00
7026;BME280;3554;42.132;24.786;2023-04-24T01:12:17;98745.03;;;10.29;100.00
7026;BME280;3554;42.132;24.786;2023-04-24T01:14:44;98717.25;;;10.44;100.00
7026;BME280;3554;42.132;24.786;2023-04-24T01:17:13;98612.03;;;10.22;100.00
7026;BME280;3554;42.132;24.786;2023-04-24T01:19:40;98671.50;;;10.85;100.00
7026;BME280;3554;42.132;24.786;2023-04-24T01:22:13;98675.56;;;10.91;100.00
7026;BME280;3554;42.132;24.786;2023-04-24T01:24:40;98668.88;;;10.85;100.00
7026;BME280;3554;42.132;24.786;2023-04-24T01:27:08;98676.56;;;10.88;100.00
7026;BME280;3554;42.132;24.786;2023-04-24T01:29:36;98679.09;;;10.90;100.00
7026;BME280;3554;42.132;24.786;2023-04-24T01:32:03;98663.72;;;10.84;100.00
7026;BME280;3554;42.132;24.786;2023-04-24T01:34:30;98679.34;;;10.85;100.00
7026;BME280;3554;42.132;24.786;2023-04-24T01:36:57;98701.41;;;10.97;100.00
7026;BME280;3554;42.132;24.786;2023-04-24T01:39:26;98689.44;;;10.93;100.00
7026;BME280;3554;42.132;24.786;2023-04-24T01:41:55;98696.50;;;10.91;100.00
7026;BME280;3554;42.132;24.786;2023-04-24T01:44:23;98709.88;;;11.02;100.00
7026;BME280;3554;42.132;24.786;2023-04-24T01:46:50;98706.25;;;11.04;100.00
7026;BME280;3554;42.132;24.786;2023-04-24T01:49:16;98712.41;;;11.03;100.00
7026;BME280;3554;42.132;24.786;2023-04-24T01:51:43;98708.94;;;11.03;100.00
7026;BME280;3554;42.132;24.786;2023-04-24T01:54:10;98711.47;;;11.04;100.00
7026;BME280;3554;42.132;24.786;2023-04-24T01:56:41;98713.94;;;11.07;100.00
7026;BME280;3554;42.132;24.786;2023-04-24T01:59:09;98726.03;;;11.10;100.00
7026;BME280;3554;42.132;24.786;2023-04-24T02:01:36;98725.66;;;11.00;100.00
7026;BME280;3554;42.132;24.786;2023-04-24T02:04:03;98714.09;;;10.71;100.00
7026;BME280;3554;42.132;24.786;2023-04-24T02:06:31;98686.22;;;10.70;100.00
7026;BME280;3554;42.132;24.786;2023-04-24T02:08:58;98666.06;;;10.72;100.00
7026;BME280;3554;42.132;24.786;2023-04-24T02:11:25;98644.44;;;10.69;100.00
7026;BME280;3554;42.132;24.786;2023-04-24T02:13:53;98631.53;;;10.66;100.00
7026;BME280;3554;42.132;24.786;2023-04-24T02:16:20;98607.59;;;10.56;100.00
7026;BME280;3554;42.132;24.786;2023-04-24T02:18:47;98606.25;;;10.65;100.00
7026;BME280;3554;42.132;24.786;2023-04-24T02:21:14;98580.25;;;10.62;100.00
7026;BME280;3554;42.132;24.786;2023-04-24T02:23:41;98567.94;;;10.64;100.00
7026;BME280;3554;42.132;24.786;2023-04-24T02:26:08;98567.88;;;10.65;100.00
7026;BME280;3554;42.132;24.786;2023-04-24T02:28:35;98565.41;;;10.62;100.00
7026;BME280;3554;42.132;24.786;2023-04-24T02:31:03;98573.09;;;10.65;100.00
7026;BME280;3554;42.132;24.786;2023-04-24T02:33:30;98547.25;;;10.59;100.00
7026;BME280;3554;42.132;24.786;2023-04-24T02:35:57;98549.88;;;10.59;100.00
7026;BME280;3554;42.132;24.786;2023-04-24T02:38:24;98537.72;;;10.58;100.00
7026;BME280;3554;42.132;24.786;2023-04-24T02:40:50;98538.13;;;10.51;100.00
7026;BME280;3554;42.132;24.786;2023-04-24T02:43:17;98529.38;;;10.52;100.00
7026;BME280;3554;42.132;24.786;2023-04-24T02:45:44;98524.19;;;10.50;100.00
7026;BME280;3554;42.132;24.786;2023-04-24T02:48:12;98515.53;;;10.50;100.00
7026;BME280;3554;42.132;24.786;2023-04-24T02:50:39;98501.81;;;10.45;100.00
7026;BME280;3554;42.132;24.786;2023-04-24T02:53:06;98508.44;;;10.52;100.00
7026;BME280;3554;42.132;24.786;2023-04-24T02:55:33;98504.13;;;10.51;100.00
7026;BME280;3554;42.132;24.786;2023-04-24T02:57:59;98503.34;;;10.49;100.00
7026;BME280;3554;42.132;24.786;2023-04-24T03:00:26;98498.47;;;10.43;100.00
7026;BME280;3554;42.132;24.786;2023-04-24T03:02:53;98480.47;;;10.37;100.00
7026;BME280;3554;42.132;24.786;2023-04-24T03:05:21;98473.56;;;10.36;100.00
7026;BME280;3554;42.132;24.786;2023-04-24T03:07:48;98485.97;;;10.32;100.00
7026;BME280;3554;42.132;24.786;2023-04-24T03:10:15;98476.91;;;10.22;100.00
7026;BME280;3554;42.132;24.786;2023-04-24T03:12:41;98467.28;;;10.23;100.00
7026;BME280;3554;42.132;24.786;2023-04-24T03:15:09;98476.22;;;10.19;100.00
7026;BME280;3554;42.132;24.786;2023-04-24T03:17:36;98464.91;;;10.18;100.00
7026;BME280;3554;42.132;24.786;2023-04-24T03:20:03;98466.94;;;10.13;100.00
7026;BME280;3554;42.132;24.786;2023-04-24T03:22:32;98465.44;;;10.09;100.00
7026;BME280;3554;42.132;24.786;2023-04-24T03:24:59;98443.84;;;10.04;100.00
7026;BME280;3554;42.132;24.786;2023-04-24T03:27:26;98432.81;;;9.99;100.00
7026;BME280;3554;42.132;24.786;2023-04-24T03:29:53;98410.34;;;9.95;100.00
7026;BME280;3554;42.132;24.786;2023-04-24T03:32:20;98396.50;;;10.10;100.00
7026;BME280;3554;42.132;24.786;2023-04-24T03:34:47;98397.28;;;10.12;100.00
7026;BME280;3554;42.132;24.786;2023-04-24T03:37:14;98386.81;;;10.12;100.00
7026;BME280;3554;42.132;24.786;2023-04-24T03:39:42;98381.25;;;10.18;100.00
7026;BME280;3554;42.132;24.786;2023-04-24T03:42:09;98377.13;;;10.14;100.00
7026;BME280;3554;42.132;24.786;2023-04-24T03:44:36;98391.63;;;10.35;100.00
7026;BME280;3554;42.132;24.786;2023-04-24T03:47:03;98402.09;;;10.51;100.00
7026;BME280;3554;42.132;24.786;2023-04-24T03:49:30;98410.56;;;10.70;100.00
7026;BME280;3554;42.132;24.786;2023-04-24T03:51:57;98420.81;;;10.74;100.00
7026;BME280;3554;42.132;24.786;2023-04-24T03:54:23;98465.63;;;11.00;100.00
7026;BME280;3554;42.132;24.786;2023-04-24T03:56:52;98494.09;;;11.20;100.00
7026;BME280;3554;42.132;24.786;2023-04-24T03:59:18;98527.28;;;11.35;100.00
7026;BME280;3554;42.132;24.786;2023-04-24T04:01:45;98568.13;;;11.39;100.00
7026;BME280;3554;42.132;24.786;2023-04-24T04:04:12;98601.06;;;11.43;100.00
7026;BME280;3554;42.132;24.786;2023-04-24T04:06:39;98567.44;;;11.20;100.00
7026;BME280;3554;42.132;24.786;2023-04-24T04:09:06;98635.88;;;11.60;100.00
7026;BME280;3554;42.132;24.786;2023-04-24T04:11:34;98650.72;;;11.91;100.00
7026;BME280;3554;42.132;24.786;2023-04-24T04:14:02;98685.00;;;12.18;100.00
7026;BME280;3554;42.132;24.786;2023-04-24T04:16:29;98718.44;;;12.30;100.00
7026;BME280;3554;42.132;24.786;2023-04-24T04:18:56;98756.47;;;12.07;100.00
7026;BME280;3554;42.132;24.786;2023-04-24T04:21:22;98753.69;;;12.40;100.00
7026;BME280;3554;42.132;24.786;2023-04-24T04:23:49;98791.84;;;11.52;100.00
7026;BME280;3554;42.132;24.786;2023-04-24T04:26:16;98742.22;;;11.01;100.00
7026;BME280;3554;42.132;24.786;2023-04-24T04:28:44;98715.81;;;10.88;100.00
7026;BME280;3554;42.132;24.786;2023-04-24T04:31:12;98683.91;;;10.82;100.00
7026;BME280;3554;42.132;24.786;2023-04-24T04:33:39;98638.16;;;11.04;100.00
7026;BME280;3554;42.132;24.786;2023-04-24T04:36:06;98629.97;;;11.26;100.00
7026;BME280;3554;42.132;24.786;2023-04-24T04:38:34;98613.63;;;11.83;100.00
7026;BME280;3554;42.132;24.786;2023-04-24T04:41:00;98651.53;;;12.37;100.00
7026;BME280;3554;42.132;24.786;2023-04-24T04:43:27;98720.41;;;12.84;100.00
7026;BME280;3554;42.132;24.786;2023-04-24T04:45:54;98801.19;;;12.94;100.00
7026;BME280;3554;42.132;24.786;2023-04-24T04:48:22;98848.00;;;13.18;100.00
7026;BME280;3554;42.132;24.786;2023-04-24T04:50:49;98902.34;;;13.02;100.00
7026;BME280;3554;42.132;24.786;2023-04-24T04:53:16;98914.44;;;12.90;100.00
7026;BME280;3554;42.132;24.786;2023-04-24T04:55:43;98922.47;;;13.32;100.00
7026;BME280;3554;42.132;24.786;2023-04-24T04:58:10;98943.56;;;13.60;100.00
7026;BME280;3554;42.132;24.786;2023-04-24T05:00:36;98955.28;;;13.98;100.00
7026;BME280;3554;42.132;24.786;2023-04-24T05:03:03;98987.28;;;13.77;100.00
7026;BME280;3554;42.132;24.786;2023-04-24T05:05:31;99002.81;;;13.22;100.00
7026;BME280;3554;42.132;24.786;2023-04-24T05:07:58;98988.06;;;12.57;100.00
7026;BME280;3554;42.132;24.786;2023-04-24T05:10:25;98969.56;;;13.21;100.00
7026;BME280;3554;42.132;24.786;2023-04-24T05:12:52;98972.16;;;13.66;100.00
7026;BME280;3554;42.132;24.786;2023-04-24T05:15:19;98980.53;;;13.87;100.00
7026;BME280;3554;42.132;24.786;2023-04-24T05:17:45;99027.31;;;14.54;100.00
7026;BME280;3554;42.132;24.786;2023-04-24T05:20:12;98997.63;;;13.80;100.00
7026;BME280;3554;42.132;24.786;2023-04-24T05:22:41;99046.75;;;14.23;100.00
7026;BME280;3554;42.132;24.786;2023-04-24T05:25:08;99030.53;;;14.45;100.00
7026;BME280;3554;42.132;24.786;2023-04-24T05:27:35;99057.03;;;14.84;100.00
7026;BME280;3554;42.132;24.786;2023-04-24T05:30:02;99066.50;;;14.86;100.00
7026;BME280;3554;42.132;24.786;2023-04-24T05:32:30;99065.75;;;14.98;100.00
7026;BME280;3554;42.132;24.786;2023-04-24T05:34:56;99059.16;;;14.77;100.00
7026;BME280;3554;42.132;24.786;2023-04-24T05:37:23;99001.66;;;14.43;100.00
7026;BME280;3554;42.132;24.786;2023-04-24T05:39:51;99053.19;;;14.75;100.00
7026;BME280;3554;42.132;24.786;2023-04-24T05:42:18;99052.03;;;14.79;100.00
7026;BME280;3554;42.132;24.786;2023-04-24T05:44:45;99051.88;;;14.68;100.00
7026;BME280;3554;42.132;24.786;2023-04-24T05:47:12;99013.41;;;14.38;100.00
7026;BME280;3554;42.132;24.786;2023-04-24T05:49:38;99034.53;;;14.78;100.00
7026;BME280;3554;42.132;24.786;2023-04-24T05:52:05;99005.75;;;14.75;100.00
7026;BME280;3554;42.132;24.786;2023-04-24T05:54:34;99026.59;;;14.92;100.00
7026;BME280;3554;42.132;24.786;2023-04-24T05:57:02;99020.38;;;14.93;100.00
7026;BME280;3554;42.132;24.786;2023-04-24T05:59:33;98997.09;;;14.73;100.00
7026;BME280;3554;42.132;24.786;2023-04-24T06:01:59;98996.44;;;14.70;100.00
7026;BME280;3554;42.132;24.786;2023-04-24T06:04:26;98995.03;;;14.64;100.00
7026;BME280;3554;42.132;24.786;2023-04-24T06:06:53;98981.50;;;14.42;100.00
7026;BME280;3554;42.132;24.786;2023-04-24T06:09:21;98970.88;;;14.16;100.00
7026;BME280;3554;42.132;24.786;2023-04-24T06:11:49;98953.34;;;13.72;100.00
7026;BME280;3554;42.132;24.786;2023-04-24T06:14:17;98930.53;;;14.01;100.00
7026;BME280;3554;42.132;24.786;2023-04-24T06:16:43;98932.63;;;13.96;100.00
7026;BME280;3554;42.132;24.786;2023-04-24T06:19:10;98921.72;;;14.16;100.00
7026;BME280;3554;42.132;24.786;2023-04-24T06:21:37;98940.41;;;14.54;100.00
7026;BME280;3554;42.132;24.786;2023-04-24T06:24:04;98957.91;;;14.81;100.00
7026;BME280;3554;42.132;24.786;2023-04-24T06:26:31;98964.03;;;15.09;100.00
7026;BME280;3554;42.132;24.786;2023-04-24T06:28:58;98977.16;;;15.23;100.00
7026;BME280;3554;42.132;24.786;2023-04-24T06:31:27;98982.22;;;15.26;100.00
7026;BME280;3554;42.132;24.786;2023-04-24T06:33:53;99008.28;;;15.44;100.00
7026;BME280;3554;42.132;24.786;2023-04-24T06:36:20;98931.78;;;15.05;100.00
7026;BME280;3554;42.132;24.786;2023-04-24T06:38:47;99002.28;;;15.55;100.00
7026;BME280;3554;42.132;24.786;2023-04-24T06:41:14;99009.88;;;15.59;100.00
7026;BME280;3554;42.132;24.786;2023-04-24T06:43:41;99012.84;;;15.55;100.00
7026;BME280;3554;42.132;24.786;2023-04-24T06:46:07;99016.22;;;15.57;100.00
7026;BME280;3554;42.132;24.786;2023-04-24T06:48:36;99001.34;;;15.56;100.00
7026;BME280;3554;42.132;24.786;2023-04-24T06:51:03;98992.56;;;15.43;100.00
7026;BME280;3554;42.132;24.786;2023-04-24T06:53:29;99012.09;;;15.53;100.00
7026;BME280;3554;42.132;24.786;2023-04-24T06:55:56;99020.84;;;15.41;100.00
7026;BME280;3554;42.132;24.786;2023-04-24T06:58:24;99019.94;;;15.67;100.00
7026;BME280;3554;42.132;24.786;2023-04-24T07:00:51;99021.25;;;15.86;100.00
7026;BME280;3554;42.132;24.786;2023-04-24T07:03:18;99016.13;;;15.58;100.00
7026;BME280;3554;42.132;24.786;2023-04-24T07:05:46;98947.03;;;15.27;100.00
7026;BME280;3554;42.132;24.786;2023-04-24T07:08:13;99008.03;;;15.86;100.00
7026;BME280;3554;42.132;24.786;2023-04-24T07:10:42;99011.44;;;16.01;100.00
7026;BME280;3554;42.132;24.786;2023-04-24T07:13:09;99030.69;;;16.41;100.00
7026;BME280;3554;42.132;24.786;2023-04-24T07:15:36;99052.91;;;15.86;100.00
7026;BME280;3554;42.132;24.786;2023-04-24T07:18:03;99043.59;;;15.68;100.00
7026;BME280;3554;42.132;24.786;2023-04-24T07:20:29;99038.69;;;15.50;100.00
7026;BME280;3554;42.132;24.786;2023-04-24T07:22:58;99032.34;;;15.91;100.00
7026;BME280;3554;42.132;24.786;2023-04-24T07:25:24;99032.13;;;16.45;100.00
7026;BME280;3554;42.132;24.786;2023-04-24T07:27:52;99055.88;;;16.95;100.00
7026;BME280;3554;42.132;24.786;2023-04-24T07:30:19;99068.41;;;16.43;100.00
7026;BME280;3554;42.132;24.786;2023-04-24T07:32:46;99075.50;;;16.80;100.00
7026;BME280;3554;42.132;24.786;2023-04-24T07:35:12;99081.28;;;17.34;100.00
7026;BME280;3554;42.132;24.786;2023-04-24T07:37:39;99090.56;;;17.39;100.00
7026;BME280;3554;42.132;24.786;2023-04-24T07:40:12;99102.03;;;17.63;100.00
7026;BME280;3554;42.132;24.786;2023-04-24T07:42:39;99107.22;;;17.65;100.00
7026;BME280;3554;42.132;24.786;2023-04-24T07:45:07;99111.72;;;17.39;100.00
7026;BME280;3554;42.132;24.786;2023-04-24T07:47:34;99135.25;;;16.18;100.00
7026;BME280;3554;42.132;24.786;2023-04-24T07:50:02;99133.59;;;15.90;100.00
7026;BME280;3554;42.132;24.786;2023-04-24T07:52:29;99136.13;;;16.31;100.00
7026;BME280;3554;42.132;24.786;2023-04-24T07:54:56;99132.88;;;17.03;100.00
7026;BME280;3554;42.132;24.786;2023-04-24T07:57:27;99139.25;;;17.37;100.00
7026;BME280;3554;42.132;24.786;2023-04-24T07:59:54;99161.13;;;17.64;100.00
7026;BME280;3554;42.132;24.786;2023-04-24T08:02:21;99201.13;;;17.72;100.00
7026;BME280;3554;42.132;24.786;2023-04-24T08:04:51;99239.94;;;17.84;100.00
7026;BME280;3554;42.132;24.786;2023-04-24T08:07:18;99261.28;;;18.06;100.00
7026;BME280;3554;42.132;24.786;2023-04-24T08:09:45;99287.81;;;18.53;100.00
7026;BME280;3554;42.132;24.786;2023-04-24T08:12:12;99293.16;;;18.64;100.00
7026;BME280;3554;42.132;24.786;2023-04-24T08:14:40;99262.44;;;18.02;100.00
7026;BME280;3554;42.132;24.786;2023-04-24T08:17:07;99235.50;;;17.10;100.00
7026;BME280;3554;42.132;24.786;2023-04-24T08:19:34;99196.72;;;17.60;100.00
7026;BME280;3554;42.132;24.786;2023-04-24T08:22:00;99189.38;;;17.99;100.00
7026;BME280;3554;42.132;24.786;2023-04-24T08:24:27;99169.34;;;18.19;100.00
7026;BME280;3554;42.132;24.786;2023-04-24T08:26:55;99159.50;;;17.12;100.00
7026;BME280;3554;42.132;24.786;2023-04-24T08:29:23;99164.09;;;16.21;100.00
7026;BME280;3554;42.132;24.786;2023-04-24T08:31:51;99153.19;;;16.13;100.00
7026;BME280;3554;42.132;24.786;2023-04-24T08:34:19;99155.84;;;16.77;100.00
7026;BME280;3554;42.132;24.786;2023-04-24T08:36:46;99148.09;;;17.25;100.00
7026;BME280;3554;42.132;24.786;2023-04-24T08:39:13;99147.50;;;17.32;100.00
7026;BME280;3554;42.132;24.786;2023-04-24T08:41:41;99140.47;;;17.69;100.00
7026;BME280;3554;42.132;24.786;2023-04-24T08:44:11;99077.16;;;17.30;100.00
7026;BME280;3554;42.132;24.786;2023-04-24T08:46:39;99131.00;;;17.77;100.00
7026;BME280;3554;42.132;24.786;2023-04-24T08:49:08;99131.81;;;17.05;100.00
7026;BME280;3554;42.132;24.786;2023-04-24T08:51:36;99126.53;;;17.54;100.00
7026;BME280;3554;42.132;24.786;2023-04-24T08:54:04;99131.19;;;17.98;100.00
7026;BME280;3554;42.132;24.786;2023-04-24T08:56:33;99125.63;;;18.13;100.00
7026;BME280;3554;42.132;24.786;2023-04-24T08:59:03;99135.63;;;18.21;100.00
7026;BME280;3554;42.132;24.786;2023-04-24T09:01:32;99132.06;;;18.33;100.00
7026;BME280;3554;42.132;24.786;2023-04-24T09:04:00;99132.50;;;18.51;100.00
7026;BME280;3554;42.132;24.786;2023-04-24T09:06:30;99114.72;;;18.40;100.00
7026;BME280;3554;42.132;24.786;2023-04-24T09:09:00;99120.69;;;18.55;100.00
7026;BME280;3554;42.132;24.786;2023-04-24T09:11:27;99104.94;;;18.86;100.00
7026;BME280;3554;42.132;24.786;2023-04-24T09:13:54;99113.97;;;19.06;100.00
7026;BME280;3554;42.132;24.786;2023-04-24T09:16:22;99126.38;;;18.61;100.00
7026;BME280;3554;42.132;24.786;2023-04-24T09:18:49;99123.28;;;17.74;100.00
7026;BME280;3554;42.132;24.786;2023-04-24T09:21:16;99097.69;;;17.62;100.00
7026;BME280;3554;42.132;24.786;2023-04-24T09:23:45;99119.56;;;17.41;100.00
7026;BME280;3554;42.132;24.786;2023-04-24T09:26:11;99114.41;;;17.27;100.00
7026;BME280;3554;42.132;24.786;2023-04-24T09:28:40;99103.09;;;17.61;100.00
7026;BME280;3554;42.132;24.786;2023-04-24T09:31:09;99106.44;;;17.75;100.00
7026;BME280;3554;42.132;24.786;2023-04-24T09:33:36;99117.59;;;18.26;100.00
7026;BME280;3554;42.132;24.786;2023-04-24T09:36:03;99098.84;;;18.40;100.00
7026;BME280;3554;42.132;24.786;2023-04-24T09:38:32;99113.47;;;18.79;100.00
7026;BME280;3554;42.132;24.786;2023-04-24T09:41:01;99108.06;;;18.91;100.00
7026;BME280;3554;42.132;24.786;2023-04-24T09:43:29;99107.09;;;19.03;100.00
7026;BME280;3554;42.132;24.786;2023-04-24T09:45:57;99101.06;;;19.01;100.00
7026;BME280;3554;42.132;24.786;2023-04-24T09:48:31;99101.91;;;19.35;100.00
7026;BME280;3554;42.132;24.786;2023-04-24T09:50:58;99089.72;;;19.21;100.00
7026;BME280;3554;42.132;24.786;2023-04-24T09:53:26;99089.66;;;19.55;100.00
7026;BME280;3554;42.132;24.786;2023-04-24T09:55:53;99083.59;;;19.64;100.00
7026;BME280;3554;42.132;24.786;2023-04-24T09:58:25;99077.94;;;19.89;100.00
7026;BME280;3554;42.132;24.786;2023-04-24T10:00:56;99077.47;;;19.63;100.00
7026;BME280;3554;42.132;24.786;2023-04-24T10:03:24;99083.44;;;19.34;100.00
7026;BME280;3554;42.132;24.786;2023-04-24T10:05:52;99070.06;;;18.80;100.00
7026;BME280;3554;42.132;24.786;2023-04-24T10:08:20;99054.97;;;19.24;100.00
7026;BME280;3554;42.132;24.786;2023-04-24T10:10:48;99072.84;;;19.65;100.00
7026;BME280;3554;42.132;24.786;2023-04-24T10:13:15;99070.44;;;19.94;100.00
7026;BME280;3554;42.132;24.786;2023-04-24T10:15:43;99073.03;;;20.05;100.00
7026;BME280;3554;42.132;24.786;2023-04-24T10:18:11;99072.00;;;19.76;100.00
7026;BME280;3554;42.132;24.786;2023-04-24T10:20:39;99069.28;;;19.55;100.00
7026;BME280;3554;42.132;24.786;2023-04-24T10:23:06;99062.78;;;19.80;100.00
7026;BME280;3554;42.132;24.786;2023-04-24T10:25:34;99018.19;;;19.63;100.00
7026;BME280;3554;42.132;24.786;2023-04-24T10:28:01;99002.16;;;19.33;100.00
7026;BME280;3554;42.132;24.786;2023-04-24T10:30:30;99051.56;;;19.45;100.00
7026;BME280;3554;42.132;24.786;2023-04-24T10:33:01;99031.78;;;19.49;100.00
7026;BME280;3554;42.132;24.786;2023-04-24T10:35:31;99040.91;;;19.56;100.00
7026;BME280;3554;42.132;24.786;2023-04-24T10:38:01;99038.16;;;19.46;100.00
7026;BME280;3554;42.132;24.786;2023-04-24T10:40:31;99012.28;;;19.59;100.00
7026;BME280;3554;42.132;24.786;2023-04-24T10:42:59;99033.09;;;19.75;100.00
7026;BME280;3554;42.132;24.786;2023-04-24T10:45:26;99000.53;;;19.41;100.00
7026;BME280;3554;42.132;24.786;2023-04-24T10:47:56;99011.28;;;19.40;100.00
7026;BME280;3554;42.132;24.786;2023-04-24T10:50:26;99021.59;;;19.11;100.00
7026;BME280;3554;42.132;24.786;2023-04-24T10:52:53;99008.03;;;19.25;100.00
7026;BME280;3554;42.132;24.786;2023-04-24T10:55:41;99001.69;;;19.59;100.00
7026;BME280;3554;42.132;24.786;2023-04-24T10:58:09;98998.13;;;19.70;100.00
7026;BME280;3554;42.132;24.786;2023-04-24T11:00:37;99002.16;;;19.33;100.00
7026;BME280;3554;42.132;24.786;2023-04-24T11:03:04;98982.28;;;19.48;100.00
7026;BME280;3554;42.132;24.786;2023-04-24T11:05:52;98985.94;;;19.67;100.00
7026;BME280;3554;42.132;24.786;2023-04-24T11:08:24;98986.84;;;19.98;100.00
7026;BME280;3554;42.132;24.786;2023-04-24T11:11:00;99000.78;;;20.32;100.00
7026;BME280;3554;42.132;24.786;2023-04-24T11:14:08;98993.53;;;19.92;100.00
7026;BME280;3554;42.132;24.786;2023-04-24T11:16:42;98980.88;;;19.85;100.00
7026;BME280;3554;42.132;24.786;2023-04-24T11:19:20;98977.59;;;19.92;100.00
7026;BME280;3554;42.132;24.786;2023-04-24T11:21:48;98940.59;;;19.59;100.00
7026;BME280;3554;42.132;24.786;2023-04-24T11:24:38;98977.31;;;19.75;100.00
7026;BME280;3554;42.132;24.786;2023-04-24T11:27:07;98971.44;;;19.71;100.00
7026;BME280;3554;42.132;24.786;2023-04-24T11:29:45;98956.16;;;19.84;100.00
7026;BME280;3554;42.132;24.786;2023-04-24T11:32:17;98963.72;;;20.09;100.00
7026;BME280;3554;42.132;24.786;2023-04-24T11:34:46;98964.22;;;20.24;100.00
7026;BME280;3554;42.132;24.786;2023-04-24T11:37:13;98963.53;;;20.22;100.00
7026;BME280;3554;42.132;24.786;2023-04-24T11:39:40;98946.47;;;20.24;100.00
7026;BME280;3554;42.132;24.786;2023-04-24T11:42:07;98937.47;;;20.46;100.00
7026;BME280;3554;42.132;24.786;2023-04-24T11:44:35;98960.38;;;20.77;100.00
7026;BME280;3554;42.132;24.786;2023-04-24T11:47:04;98950.56;;;20.68;100.00
7026;BME280;3554;42.132;24.786;2023-04-24T11:49:31;98944.28;;;20.88;100.00
7026;BME280;3554;42.132;24.786;2023-04-24T11:51:59;98938.09;;;21.18;100.00
7026;BME280;3554;42.132;24.786;2023-04-24T11:54:26;98933.47;;;21.20;100.00
7026;BME280;3554;42.132;24.786;2023-04-24T11:56:53;98923.50;;;21.32;100.00
7026;BME280;3554;42.132;24.786;2023-04-24T11:59:20;98909.22;;;21.23;100.00
7026;BME280;3554;42.132;24.786;2023-04-24T12:01:47;98922.88;;;20.90;100.00
7026;BME280;3554;42.132;24.786;2023-04-24T12:04:16;98911.72;;;20.56;100.00
7026;BME280;3554;42.132;24.786;2023-04-24T12:07:01;98907.78;;;20.41;100.00
7026;BME280;3554;42.132;24.786;2023-04-24T12:09:28;98903.03;;;20.54;100.00
7026;BME280;3554;42.132;24.786;2023-04-24T12:11:55;98879.81;;;20.47;100.00
7026;BME280;3554;42.132;24.786;2023-04-24T12:14:23;98881.84;;;20.73;100.00
7026;BME280;3554;42.132;24.786;2023-04-24T12:16:50;98881.72;;;20.84;100.00
7026;BME280;3554;42.132;24.786;2023-04-24T12:19:20;98860.38;;;20.56;100.00
7026;BME280;3554;42.132;24.786;2023-04-24T12:21:59;98847.50;;;20.42;100.00
7026;BME280;3554;42.132;24.786;2023-04-24T12:24:26;98816.25;;;20.34;100.00
7026;BME280;3554;42.132;24.786;2023-04-24T12:26:53;98845.28;;;20.66;100.00
7026;BME280;3554;42.132;24.786;2023-04-24T12:29:20;98804.06;;;20.32;100.00
7026;BME280;3554;42.132;24.786;2023-04-24T12:31:47;98834.75;;;20.55;100.00
7026;BME280;3554;42.132;24.786;2023-04-24T12:34:19;98802.16;;;20.43;100.00
7026;BME280;3554;42.132;24.786;2023-04-24T12:36:46;98824.13;;;20.64;100.00
7026;BME280;3554;42.132;24.786;2023-04-24T12:39:17;98810.31;;;20.99;100.00
7026;BME280;3554;42.132;24.786;2023-04-24T12:41:54;98811.28;;;21.17;100.00
7026;BME280;3554;42.132;24.786;2023-04-24T12:44:29;98802.03;;;21.11;100.00
7026;BME280;3554;42.132;24.786;2023-04-24T12:46:56;98819.00;;;21.10;100.00
7026;BME280;3554;42.132;24.786;2023-04-24T12:49:24;98814.91;;;21.35;100.00
7026;BME280;3554;42.132;24.786;2023-04-24T12:51:51;98814.50;;;21.30;100.00
7026;BME280;3554;42.132;24.786;2023-04-24T12:54:18;98805.09;;;21.36;100.00
7026;BME280;3554;42.132;24.786;2023-04-24T12:56:45;98795.41;;;21.44;100.00
7026;BME280;3554;42.132;24.786;2023-04-24T12:59:12;98808.41;;;21.47;100.00
7026;BME280;3554;42.132;24.786;2023-04-24T13:01:38;98797.03;;;21.55;100.00
7026;BME280;3554;42.132;24.786;2023-04-24T13:04:05;98782.72;;;21.56;100.00